sensor_id;sensor_type;location;lat;lon;timestamp;P1;durP1;ratioP1;P2;durP2;ratioP2
27225;SDS011;14732;51.074;3.788;2023-03-31T00:02:04;22.05;;;2.58;;
27225;SDS011;14732;51.074;3.788;2023-03-31T00:04:38;17.88;;;2.17;;
27225;SDS011;14732;51.074;3.788;2023-03-31T00:07:09;18.70;;;2.63;;
27225;SDS011;14732;51.074;3.788;2023-03-31T00:09:38;20.17;;;3.00;;
27225;SDS011;14732;51.074;3.788;2023-03-31T00:12:06;18.58;;;2.60;;
27225;SDS011;14732;51.074;3.788;2023-03-31T00:14:31;17.58;;;3.17;;
27225;SDS011;14732;51.074;3.788;2023-03-31T00:16:57;15.43;;;3.03;;
27225;SDS011;14732;51.074;3.788;2023-03-31T00:19:23;18.33;;;2.55;;
27225;SDS011;14732;51.074;3.788;2023-03-31T00:21:48;22.80;;;2.70;;
27225;SDS011;14732;51.074;3.788;2023-03-31T00:24:15;23.05;;;2.75;;
27225;SDS011;14732;51.074;3.788;2023-03-31T00:26:42;13.27;;;2.28;;
27225;SDS011;14732;51.074;3.788;2023-03-31T00:29:08;19.52;;;2.40;;
27225;SDS011;14732;51.074;3.788;2023-03-31T00:31:37;22.37;;;3.07;;
27225;SDS011;14732;51.074;3.788;2023-03-31T00:34:03;15.35;;;2.20;;
27225;SDS011;14732;51.074;3.788;2023-03-31T00:36:30;24.80;;;2.42;;
27225;SDS011;14732;51.074;3.788;2023-03-31T00:38:57;16.63;;;2.55;;
27225;SDS011;14732;51.074;3.788;2023-03-31T00:41:25;17.02;;;2.42;;
27225;SDS011;14732;51.074;3.788;2023-03-31T00:49:15;13.35;;;2.40;;
27225;SDS011;14732;51.074;3.788;2023-03-31T00:51:55;11.77;;;1.90;;
27225;SDS011;14732;51.074;3.788;2023-03-31T00:54:26;18.20;;;2.35;;
27225;SDS011;14732;51.074;3.788;2023-03-31T00:56:54;17.63;;;2.53;;
27225;SDS011;14732;51.074;3.788;2023-03-31T00:59:23;15.50;;;2.33;;
27225;SDS011;14732;51.074;3.788;2023-03-31T01:04:18;21.92;;;2.53;;
27225;SDS011;14732;51.074;3.788;2023-03-31T01:06:54;17.35;;;2.15;;
27225;SDS011;14732;51.074;3.788;2023-03-31T01:09:36;16.73;;;2.88;;
27225;SDS011;14732;51.074;3.788;2023-03-31T01:12:05;19.92;;;2.55;;
27225;SDS011;14732;51.074;3.788;2023-03-31T01:14:33;17.33;;;2.35;;
27225;SDS011;14732;51.074;3.788;2023-03-31T01:16:59;18.42;;;2.42;;
27225;SDS011;14732;51.074;3.788;2023-03-31T01:19:40;18.85;;;2.40;;
27225;SDS011;14732;51.074;3.788;2023-03-31T01:43:32;10.35;;;1.90;;
27225;SDS011;14732;51.074;3.788;2023-03-31T01:46:30;12.05;;;2.08;;
27225;SDS011;14732;51.074;3.788;2023-03-31T01:51:40;10.95;;;2.40;;
27225;SDS011;14732;51.074;3.788;2023-03-31T01:54:18;10.32;;;1.90;;
27225;SDS011;14732;51.074;3.788;2023-03-31T01:56:51;18.02;;;2.00;;
27225;SDS011;14732;51.074;3.788;2023-03-31T01:59:33;11.85;;;1.83;;
27225;SDS011;14732;51.074;3.788;2023-03-31T02:02:18;15.27;;;2.30;;
27225;SDS011;14732;51.074;3.788;2023-03-31T02:04:57;15.35;;;2.42;;
27225;SDS011;14732;51.074;3.788;2023-03-31T02:07:33;9.02;;;1.83;;
27225;SDS011;14732;51.074;3.788;2023-03-31T02:10:21;17.23;;;2.13;;
27225;SDS011;14732;51.074;3.788;2023-03-31T02:12:49;11.65;;;2.22;;
27225;SDS011;14732;51.074;3.788;2023-03-31T02:15:21;15.43;;;2.22;;
27225;SDS011;14732;51.074;3.788;2023-03-31T02:17:54;9.25;;;1.75;;
27225;SDS011;14732;51.074;3.788;2023-03-31T02:20:23;13.60;;;1.95;;
27225;SDS011;14732;51.074;3.788;2023-03-31T02:22:52;11.15;;;1.83;;
27225;SDS011;14732;51.074;3.788;2023-03-31T02:25:21;10.90;;;2.13;;
27225;SDS011;14732;51.074;3.788;2023-03-31T02:27:55;16.90;;;2.30;;
27225;SDS011;14732;51.074;3.788;2023-03-31T02:30:28;11.95;;;2.03;;
27225;SDS011;14732;51.074;3.788;2023-03-31T02:33:00;11.48;;;2.15;;
27225;SDS011;14732;51.074;3.788;2023-03-31T02:35:29;13.13;;;1.85;;
27225;SDS011;14732;51.074;3.788;2023-03-31T02:37:55;13.75;;;2.08;;
27225;SDS011;14732;51.074;3.788;2023-03-31T02:40:22;9.95;;;1.58;;
27225;SDS011;14732;51.074;3.788;2023-03-31T02:42:51;11.45;;;2.03;;
27225;SDS011;14732;51.074;3.788;2023-03-31T02:48:01;8.27;;;1.67;;
27225;SDS011;14732;51.074;3.788;2023-03-31T02:50:31;10.25;;;1.65;;
27225;SDS011;14732;51.074;3.788;2023-03-31T02:53:19;10.23;;;1.20;;
27225;SDS011;14732;51.074;3.788;2023-03-31T02:56:05;12.50;;;1.53;;
27225;SDS011;14732;51.074;3.788;2023-03-31T03:04:21;2.85;;;0.88;;
27225;SDS011;14732;51.074;3.788;2023-03-31T03:07:12;4.20;;;0.95;;
27225;SDS011;14732;51.074;3.788;2023-03-31T03:12:21;4.93;;;0.80;;
27225;SDS011;14732;51.074;3.788;2023-03-31T03:17:24;3.22;;;0.57;;
27225;SDS011;14732;51.074;3.788;2023-03-31T03:20:00;2.28;;;0.60;;
27225;SDS011;14732;51.074;3.788;2023-03-31T03:22:32;1.75;;;0.40;;
27225;SDS011;14732;51.074;3.788;2023-03-31T03:24:58;2.40;;;0.38;;
27225;SDS011;14732;51.074;3.788;2023-03-31T03:27:24;0.70;;;0.20;;
27225;SDS011;14732;51.074;3.788;2023-03-31T03:29:50;1.65;;;0.32;;
27225;SDS011;14732;51.074;3.788;2023-03-31T03:32:16;2.22;;;0.50;;
27225;SDS011;14732;51.074;3.788;2023-03-31T03:34:41;2.42;;;0.30;;
27225;SDS011;14732;51.074;3.788;2023-03-31T03:37:07;0.98;;;0.35;;
27225;SDS011;14732;51.074;3.788;2023-03-31T03:39:33;1.65;;;0.30;;
27225;SDS011;14732;51.074;3.788;2023-03-31T03:41:58;0.95;;;0.20;;
27225;SDS011;14732;51.074;3.788;2023-03-31T03:44:24;1.83;;;0.43;;
27225;SDS011;14732;51.074;3.788;2023-03-31T03:46:50;1.90;;;0.30;;
27225;SDS011;14732;51.074;3.788;2023-03-31T03:49:16;1.75;;;0.40;;
27225;SDS011;14732;51.074;3.788;2023-03-31T03:51:42;2.30;;;0.68;;
27225;SDS011;14732;51.074;3.788;2023-03-31T03:54:07;3.58;;;0.30;;
27225;SDS011;14732;51.074;3.788;2023-03-31T03:56:33;1.52;;;0.30;;
27225;SDS011;14732;51.074;3.788;2023-03-31T03:58:59;1.40;;;0.40;;
27225;SDS011;14732;51.074;3.788;2023-03-31T04:01:24;2.55;;;0.52;;
27225;SDS011;14732;51.074;3.788;2023-03-31T04:03:50;1.92;;;0.25;;
27225;SDS011;14732;51.074;3.788;2023-03-31T04:06:16;2.63;;;0.40;;
27225;SDS011;14732;51.074;3.788;2023-03-31T04:08:42;0.63;;;0.30;;
27225;SDS011;14732;51.074;3.788;2023-03-31T04:11:12;1.55;;;0.40;;
27225;SDS011;14732;51.074;3.788;2023-03-31T04:13:41;1.13;;;0.30;;
27225;SDS011;14732;51.074;3.788;2023-03-31T04:16:07;1.52;;;0.50;;
27225;SDS011;14732;51.074;3.788;2023-03-31T04:18:33;0.50;;;0.30;;
27225;SDS011;14732;51.074;3.788;2023-03-31T04:21:01;2.40;;;0.40;;
27225;SDS011;14732;51.074;3.788;2023-03-31T04:23:34;2.60;;;0.43;;
27225;SDS011;14732;51.074;3.788;2023-03-31T04:26:09;1.77;;;0.47;;
27225;SDS011;14732;51.074;3.788;2023-03-31T04:28:36;2.03;;;0.40;;
27225;SDS011;14732;51.074;3.788;2023-03-31T04:31:03;2.08;;;0.50;;
27225;SDS011;14732;51.074;3.788;2023-03-31T04:33:33;0.57;;;0.30;;
27225;SDS011;14732;51.074;3.788;2023-03-31T04:36:02;2.13;;;0.38;;
27225;SDS011;14732;51.074;3.788;2023-03-31T04:38:42;2.03;;;0.50;;
27225;SDS011;14732;51.074;3.788;2023-03-31T04:43:37;3.28;;;0.40;;
27225;SDS011;14732;51.074;3.788;2023-03-31T04:46:03;4.47;;;0.55;;
27225;SDS011;14732;51.074;3.788;2023-03-31T04:48:29;2.10;;;0.88;;
27225;SDS011;14732;51.074;3.788;2023-03-31T04:50:55;4.55;;;0.90;;
27225;SDS011;14732;51.074;3.788;2023-03-31T04:53:20;2.05;;;0.60;;
27225;SDS011;14732;51.074;3.788;2023-03-31T04:55:47;5.70;;;1.00;;
27225;SDS011;14732;51.074;3.788;2023-03-31T04:58:14;5.65;;;0.90;;
27225;SDS011;14732;51.074;3.788;2023-03-31T05:00:40;2.20;;;1.08;;
27225;SDS011;14732;51.074;3.788;2023-03-31T05:03:06;6.22;;;1.02;;
27225;SDS011;14732;51.074;3.788;2023-03-31T05:05:32;7.53;;;1.10;;
27225;SDS011;14732;51.074;3.788;2023-03-31T05:07:57;5.22;;;1.23;;
27225;SDS011;14732;51.074;3.788;2023-03-31T05:10:23;10.10;;;1.27;;
27225;SDS011;14732;51.074;3.788;2023-03-31T05:12:49;9.98;;;1.20;;
27225;SDS011;14732;51.074;3.788;2023-03-31T05:15:15;8.00;;;1.58;;
27225;SDS011;14732;51.074;3.788;2023-03-31T05:17:41;5.00;;;1.10;;
27225;SDS011;14732;51.074;3.788;2023-03-31T05:20:07;12.35;;;1.63;;
27225;SDS011;14732;51.074;3.788;2023-03-31T05:22:34;8.07;;;1.50;;
27225;SDS011;14732;51.074;3.788;2023-03-31T05:25:01;7.28;;;1.30;;
27225;SDS011;14732;51.074;3.788;2023-03-31T05:27:28;12.65;;;1.65;;
27225;SDS011;14732;51.074;3.788;2023-03-31T05:29:54;12.20;;;1.75;;
27225;SDS011;14732;51.074;3.788;2023-03-31T05:32:20;12.20;;;1.90;;
27225;SDS011;14732;51.074;3.788;2023-03-31T05:34:45;11.10;;;1.90;;
27225;SDS011;14732;51.074;3.788;2023-03-31T05:37:11;17.92;;;2.50;;
27225;SDS011;14732;51.074;3.788;2023-03-31T05:39:37;12.85;;;2.33;;
27225;SDS011;14732;51.074;3.788;2023-03-31T05:42:02;15.32;;;2.25;;
27225;SDS011;14732;51.074;3.788;2023-03-31T05:44:30;17.05;;;2.67;;
27225;SDS011;14732;51.074;3.788;2023-03-31T05:46:55;19.05;;;2.75;;
27225;SDS011;14732;51.074;3.788;2023-03-31T05:49:21;15.75;;;1.95;;
27225;SDS011;14732;51.074;3.788;2023-03-31T05:51:47;16.77;;;2.78;;
27225;SDS011;14732;51.074;3.788;2023-03-31T05:54:15;16.58;;;2.28;;
27225;SDS011;14732;51.074;3.788;2023-03-31T05:56:41;16.05;;;2.72;;
27225;SDS011;14732;51.074;3.788;2023-03-31T05:59:07;21.27;;;2.35;;
27225;SDS011;14732;51.074;3.788;2023-03-31T06:01:33;18.98;;;2.58;;
27225;SDS011;14732;51.074;3.788;2023-03-31T06:03:59;18.52;;;2.75;;
27225;SDS011;14732;51.074;3.788;2023-03-31T06:06:24;18.25;;;2.30;;
27225;SDS011;14732;51.074;3.788;2023-03-31T06:08:50;14.27;;;2.67;;
27225;SDS011;14732;51.074;3.788;2023-03-31T06:11:17;17.17;;;3.20;;
27225;SDS011;14732;51.074;3.788;2023-03-31T06:13:44;20.42;;;2.78;;
27225;SDS011;14732;51.074;3.788;2023-03-31T06:16:11;24.42;;;2.80;;
27225;SDS011;14732;51.074;3.788;2023-03-31T06:18:38;19.38;;;2.67;;
27225;SDS011;14732;51.074;3.788;2023-03-31T06:21:05;22.15;;;2.97;;
27225;SDS011;14732;51.074;3.788;2023-03-31T06:23:31;17.48;;;2.92;;
27225;SDS011;14732;51.074;3.788;2023-03-31T06:26:00;18.33;;;2.70;;
27225;SDS011;14732;51.074;3.788;2023-03-31T06:28:31;13.93;;;2.78;;
27225;SDS011;14732;51.074;3.788;2023-03-31T06:30:58;18.92;;;3.17;;
27225;SDS011;14732;51.074;3.788;2023-03-31T06:33:25;18.05;;;2.53;;
27225;SDS011;14732;51.074;3.788;2023-03-31T06:35:51;16.33;;;3.00;;
27225;SDS011;14732;51.074;3.788;2023-03-31T06:38:20;19.52;;;2.95;;
27225;SDS011;14732;51.074;3.788;2023-03-31T06:40:46;21.48;;;3.35;;
27225;SDS011;14732;51.074;3.788;2023-03-31T06:43:11;26.10;;;3.25;;
27225;SDS011;14732;51.074;3.788;2023-03-31T06:45:37;20.20;;;2.97;;
27225;SDS011;14732;51.074;3.788;2023-03-31T06:48:03;16.55;;;2.85;;
27225;SDS011;14732;51.074;3.788;2023-03-31T06:50:28;24.77;;;3.40;;
27225;SDS011;14732;51.074;3.788;2023-03-31T06:52:54;22.88;;;2.83;;
27225;SDS011;14732;51.074;3.788;2023-03-31T06:55:20;19.85;;;3.22;;
27225;SDS011;14732;51.074;3.788;2023-03-31T06:57:45;25.10;;;3.60;;
27225;SDS011;14732;51.074;3.788;2023-03-31T07:00:11;22.05;;;3.55;;
27225;SDS011;14732;51.074;3.788;2023-03-31T07:02:37;21.27;;;3.30;;
27225;SDS011;14732;51.074;3.788;2023-03-31T07:05:03;24.00;;;3.25;;
27225;SDS011;14732;51.074;3.788;2023-03-31T07:07:32;24.90;;;3.00;;
27225;SDS011;14732;51.074;3.788;2023-03-31T07:09:58;21.20;;;2.77;;
27225;SDS011;14732;51.074;3.788;2023-03-31T07:12:24;23.52;;;3.33;;
27225;SDS011;14732;51.074;3.788;2023-03-31T07:14:50;18.60;;;2.85;;
27225;SDS011;14732;51.074;3.788;2023-03-31T07:17:15;28.40;;;4.35;;
27225;SDS011;14732;51.074;3.788;2023-03-31T07:19:41;19.38;;;3.00;;
27225;SDS011;14732;51.074;3.788;2023-03-31T07:22:07;15.55;;;2.60;;
27225;SDS011;14732;51.074;3.788;2023-03-31T07:24:33;20.23;;;3.15;;
27225;SDS011;14732;51.074;3.788;2023-03-31T07:26:58;21.80;;;3.17;;
27225;SDS011;14732;51.074;3.788;2023-03-31T07:29:24;18.58;;;3.47;;
27225;SDS011;14732;51.074;3.788;2023-03-31T07:31:50;19.80;;;2.88;;
27225;SDS011;14732;51.074;3.788;2023-03-31T07:34:16;27.10;;;3.30;;
27225;SDS011;14732;51.074;3.788;2023-03-31T07:36:42;17.00;;;3.28;;
27225;SDS011;14732;51.074;3.788;2023-03-31T07:39:08;21.13;;;3.20;;
27225;SDS011;14732;51.074;3.788;2023-03-31T07:41:34;21.23;;;3.20;;
27225;SDS011;14732;51.074;3.788;2023-03-31T07:44:00;20.35;;;3.13;;
27225;SDS011;14732;51.074;3.788;2023-03-31T07:46:26;21.92;;;3.78;;
27225;SDS011;14732;51.074;3.788;2023-03-31T07:48:53;26.02;;;3.70;;
27225;SDS011;14732;51.074;3.788;2023-03-31T07:51:22;25.52;;;3.90;;
27225;SDS011;14732;51.074;3.788;2023-03-31T07:53:50;21.97;;;3.37;;
27225;SDS011;14732;51.074;3.788;2023-03-31T07:56:20;22.73;;;3.35;;
27225;SDS011;14732;51.074;3.788;2023-03-31T07:58:47;20.38;;;3.40;;
27225;SDS011;14732;51.074;3.788;2023-03-31T08:01:14;18.52;;;3.45;;
27225;SDS011;14732;51.074;3.788;2023-03-31T08:03:41;34.80;;;4.80;;
27225;SDS011;14732;51.074;3.788;2023-03-31T08:06:07;23.52;;;4.45;;
27225;SDS011;14732;51.074;3.788;2023-03-31T08:08:33;17.67;;;3.08;;
27225;SDS011;14732;51.074;3.788;2023-03-31T08:10:58;23.17;;;3.08;;
27225;SDS011;14732;51.074;3.788;2023-03-31T08:13:24;19.98;;;3.90;;
27225;SDS011;14732;51.074;3.788;2023-03-31T08:15:50;19.58;;;3.22;;
27225;SDS011;14732;51.074;3.788;2023-03-31T08:18:16;22.30;;;3.33;;
27225;SDS011;14732;51.074;3.788;2023-03-31T08:20:41;17.83;;;2.65;;
27225;SDS011;14732;51.074;3.788;2023-03-31T08:23:07;18.85;;;3.33;;
27225;SDS011;14732;51.074;3.788;2023-03-31T08:25:35;22.92;;;2.70;;
27225;SDS011;14732;51.074;3.788;2023-03-31T08:28:01;24.30;;;3.30;;
27225;SDS011;14732;51.074;3.788;2023-03-31T08:30:27;14.80;;;2.50;;
27225;SDS011;14732;51.074;3.788;2023-03-31T08:32:53;16.75;;;3.20;;
27225;SDS011;14732;51.074;3.788;2023-03-31T08:35:18;17.73;;;2.75;;
27225;SDS011;14732;51.074;3.788;2023-03-31T08:37:44;15.90;;;2.22;;
27225;SDS011;14732;51.074;3.788;2023-03-31T08:40:13;14.52;;;2.95;;
27225;SDS011;14732;51.074;3.788;2023-03-31T08:42:44;12.73;;;2.35;;
27225;SDS011;14732;51.074;3.788;2023-03-31T08:47:46;17.85;;;2.53;;
27225;SDS011;14732;51.074;3.788;2023-03-31T08:55:45;17.38;;;2.70;;
27225;SDS011;14732;51.074;3.788;2023-03-31T09:01:04;15.40;;;2.85;;
27225;SDS011;14732;51.074;3.788;2023-03-31T09:04:12;22.85;;;3.00;;
27225;SDS011;14732;51.074;3.788;2023-03-31T09:06:52;14.18;;;2.55;;
27225;SDS011;14732;51.074;3.788;2023-03-31T09:16:03;20.13;;;2.67;;
27225;SDS011;14732;51.074;3.788;2023-03-31T09:23:50;17.30;;;3.10;;
27225;SDS011;14732;51.074;3.788;2023-03-31T09:26:50;15.05;;;2.60;;
27225;SDS011;14732;51.074;3.788;2023-03-31T09:29:21;17.80;;;2.97;;
27225;SDS011;14732;51.074;3.788;2023-03-31T09:32:16;16.80;;;2.85;;
27225;SDS011;14732;51.074;3.788;2023-03-31T09:34:45;20.90;;;3.22;;
27225;SDS011;14732;51.074;3.788;2023-03-31T09:37:14;21.60;;;2.70;;
27225;SDS011;14732;51.074;3.788;2023-03-31T09:39:40;24.20;;;3.47;;
27225;SDS011;14732;51.074;3.788;2023-03-31T09:42:05;16.58;;;2.85;;
27225;SDS011;14732;51.074;3.788;2023-03-31T09:44:38;20.50;;;3.03;;
27225;SDS011;14732;51.074;3.788;2023-03-31T09:47:06;18.60;;;2.70;;
27225;SDS011;14732;51.074;3.788;2023-03-31T09:49:41;16.77;;;2.83;;
27225;SDS011;14732;51.074;3.788;2023-03-31T09:52:28;18.80;;;2.90;;
27225;SDS011;14732;51.074;3.788;2023-03-31T09:54:59;16.88;;;2.80;;
27225;SDS011;14732;51.074;3.788;2023-03-31T09:57:38;25.17;;;3.60;;
27225;SDS011;14732;51.074;3.788;2023-03-31T10:02:52;20.63;;;3.25;;
27225;SDS011;14732;51.074;3.788;2023-03-31T10:05:25;17.98;;;3.03;;
27225;SDS011;14732;51.074;3.788;2023-03-31T10:08:13;20.52;;;2.97;;
27225;SDS011;14732;51.074;3.788;2023-03-31T10:10:55;21.23;;;3.20;;
27225;SDS011;14732;51.074;3.788;2023-03-31T10:13:28;24.52;;;3.05;;
27225;SDS011;14732;51.074;3.788;2023-03-31T10:16:05;25.98;;;3.53;;
27225;SDS011;14732;51.074;3.788;2023-03-31T10:18:38;22.08;;;3.03;;
27225;SDS011;14732;51.074;3.788;2023-03-31T10:21:26;19.63;;;3.10;;
27225;SDS011;14732;51.074;3.788;2023-03-31T10:23:59;20.27;;;3.47;;
27225;SDS011;14732;51.074;3.788;2023-03-31T10:26:26;20.55;;;3.13;;
27225;SDS011;14732;51.074;3.788;2023-03-31T10:28:53;16.48;;;2.72;;
27225;SDS011;14732;51.074;3.788;2023-03-31T10:31:23;19.05;;;2.75;;
27225;SDS011;14732;51.074;3.788;2023-03-31T10:33:51;25.27;;;3.40;;
27225;SDS011;14732;51.074;3.788;2023-03-31T10:36:20;19.30;;;2.83;;
27225;SDS011;14732;51.074;3.788;2023-03-31T10:38:50;20.08;;;2.90;;
27225;SDS011;14732;51.074;3.788;2023-03-31T10:41:18;18.52;;;2.60;;
27225;SDS011;14732;51.074;3.788;2023-03-31T10:43:50;23.85;;;3.50;;
27225;SDS011;14732;51.074;3.788;2023-03-31T10:46:18;19.50;;;2.70;;
27225;SDS011;14732;51.074;3.788;2023-03-31T10:48:44;23.35;;;3.00;;
27225;SDS011;14732;51.074;3.788;2023-03-31T10:51:15;20.33;;;2.38;;
27225;SDS011;14732;51.074;3.788;2023-03-31T10:53:49;19.60;;;2.50;;
27225;SDS011;14732;51.074;3.788;2023-03-31T11:04:30;10.65;;;2.00;;
27225;SDS011;14732;51.074;3.788;2023-03-31T11:07:16;14.43;;;2.30;;
27225;SDS011;14732;51.074;3.788;2023-03-31T11:09:52;15.38;;;2.20;;
27225;SDS011;14732;51.074;3.788;2023-03-31T11:12:47;16.27;;;2.70;;
27225;SDS011;14732;51.074;3.788;2023-03-31T11:23:40;14.70;;;2.50;;
27225;SDS011;14732;51.074;3.788;2023-03-31T11:41:13;10.07;;;1.98;;
27225;SDS011;14732;51.074;3.788;2023-03-31T11:46:27;14.13;;;2.70;;
27225;SDS011;14732;51.074;3.788;2023-03-31T11:49:02;14.98;;;2.40;;
27225;SDS011;14732;51.074;3.788;2023-03-31T11:51:36;11.40;;;2.10;;
27225;SDS011;14732;51.074;3.788;2023-03-31T11:54:20;15.45;;;2.10;;
27225;SDS011;14732;51.074;3.788;2023-03-31T11:56:50;12.13;;;1.88;;
27225;SDS011;14732;51.074;3.788;2023-03-31T11:59:20;11.73;;;1.92;;
27225;SDS011;14732;51.074;3.788;2023-03-31T12:04:45;10.73;;;1.48;;
27225;SDS011;14732;51.074;3.788;2023-03-31T12:07:23;10.38;;;1.45;;
27225;SDS011;14732;51.074;3.788;2023-03-31T12:10:20;8.48;;;1.73;;
27225;SDS011;14732;51.074;3.788;2023-03-31T12:15:53;7.10;;;1.30;;
27225;SDS011;14732;51.074;3.788;2023-03-31T12:18:29;9.20;;;1.73;;
27225;SDS011;14732;51.074;3.788;2023-03-31T12:21:03;7.10;;;1.30;;
27225;SDS011;14732;51.074;3.788;2023-03-31T12:23:33;7.20;;;1.20;;
27225;SDS011;14732;51.074;3.788;2023-03-31T12:28:35;2.55;;;0.82;;
27225;SDS011;14732;51.074;3.788;2023-03-31T12:31:04;4.63;;;0.77;;
27225;SDS011;14732;51.074;3.788;2023-03-31T12:33:42;7.30;;;1.00;;
27225;SDS011;14732;51.074;3.788;2023-03-31T12:45:32;3.08;;;0.60;;
27225;SDS011;14732;51.074;3.788;2023-03-31T12:56:07;4.45;;;0.88;;
27225;SDS011;14732;51.074;3.788;2023-03-31T12:58:37;3.58;;;0.77;;
27225;SDS011;14732;51.074;3.788;2023-03-31T13:09:04;3.22;;;0.88;;
27225;SDS011;14732;51.074;3.788;2023-03-31T13:16:42;5.00;;;0.88;;
27225;SDS011;14732;51.074;3.788;2023-03-31T13:19:09;2.38;;;0.80;;
27225;SDS011;14732;51.074;3.788;2023-03-31T13:21:52;4.78;;;0.80;;
27225;SDS011;14732;51.074;3.788;2023-03-31T13:24:23;3.08;;;0.80;;
27225;SDS011;14732;51.074;3.788;2023-03-31T13:26:51;2.67;;;0.60;;
27225;SDS011;14732;51.074;3.788;2023-03-31T13:29:59;6.35;;;0.80;;
27225;SDS011;14732;51.074;3.788;2023-03-31T13:32:16;3.20;;;0.63;;
27225;SDS011;14732;51.074;3.788;2023-03-31T13:34:49;4.25;;;0.70;;
27225;SDS011;14732;51.074;3.788;2023-03-31T13:37:48;6.35;;;0.70;;
27225;SDS011;14732;51.074;3.788;2023-03-31T13:49:11;4.97;;;0.68;;
27225;SDS011;14732;51.074;3.788;2023-03-31T13:52:01;5.35;;;0.70;;
27225;SDS011;14732;51.074;3.788;2023-03-31T14:00:24;3.20;;;0.50;;
27225;SDS011;14732;51.074;3.788;2023-03-31T14:03:36;3.72;;;0.77;;
27225;SDS011;14732;51.074;3.788;2023-03-31T14:06:26;6.47;;;1.10;;
27225;SDS011;14732;51.074;3.788;2023-03-31T14:09:36;3.65;;;0.75;;
27225;SDS011;14732;51.074;3.788;2023-03-31T14:12:20;5.57;;;0.63;;
27225;SDS011;14732;51.074;3.788;2023-03-31T14:15:11;3.85;;;0.68;;
27225;SDS011;14732;51.074;3.788;2023-03-31T14:17:43;2.85;;;0.70;;
27225;SDS011;14732;51.074;3.788;2023-03-31T14:26:15;8.88;;;0.90;;
27225;SDS011;14732;51.074;3.788;2023-03-31T14:37:04;5.65;;;1.00;;
27225;SDS011;14732;51.074;3.788;2023-03-31T14:42:04;6.95;;;1.10;;
27225;SDS011;14732;51.074;3.788;2023-03-31T14:44:34;3.58;;;0.98;;
27225;SDS011;14732;51.074;3.788;2023-03-31T14:47:01;6.55;;;1.02;;
27225;SDS011;14732;51.074;3.788;2023-03-31T14:49:37;6.70;;;0.98;;
27225;SDS011;14732;51.074;3.788;2023-03-31T14:52:13;5.75;;;1.02;;
27225;SDS011;14732;51.074;3.788;2023-03-31T14:54:42;3.72;;;1.05;;
27225;SDS011;14732;51.074;3.788;2023-03-31T14:57:12;9.45;;;0.95;;
27225;SDS011;14732;51.074;3.788;2023-03-31T14:59:41;6.47;;;1.00;;
27225;SDS011;14732;51.074;3.788;2023-03-31T15:02:08;4.70;;;0.88;;
27225;SDS011;14732;51.074;3.788;2023-03-31T15:04:47;5.53;;;1.10;;
27225;SDS011;14732;51.074;3.788;2023-03-31T15:07:15;6.55;;;1.13;;
27225;SDS011;14732;51.074;3.788;2023-03-31T15:09:43;6.03;;;1.30;;
27225;SDS011;14732;51.074;3.788;2023-03-31T15:12:13;6.22;;;1.42;;
27225;SDS011;14732;51.074;3.788;2023-03-31T15:14:44;8.48;;;1.40;;
27225;SDS011;14732;51.074;3.788;2023-03-31T15:17:22;6.70;;;1.40;;
27225;SDS011;14732;51.074;3.788;2023-03-31T15:19:57;11.52;;;2.10;;
27225;SDS011;14732;51.074;3.788;2023-03-31T15:22:25;9.05;;;1.77;;
27225;SDS011;14732;51.074;3.788;2023-03-31T15:24:53;13.20;;;2.33;;
27225;SDS011;14732;51.074;3.788;2023-03-31T15:30:05;11.57;;;1.63;;
27225;SDS011;14732;51.074;3.788;2023-03-31T15:32:34;17.42;;;1.92;;
27225;SDS011;14732;51.074;3.788;2023-03-31T15:35:01;15.85;;;2.25;;
27225;SDS011;14732;51.074;3.788;2023-03-31T15:37:38;12.05;;;1.77;;
27225;SDS011;14732;51.074;3.788;2023-03-31T15:40:10;11.52;;;2.17;;
27225;SDS011;14732;51.074;3.788;2023-03-31T15:42:41;15.50;;;2.53;;
27225;SDS011;14732;51.074;3.788;2023-03-31T15:47:47;23.15;;;2.60;;
27225;SDS011;14732;51.074;3.788;2023-03-31T15:50:17;13.02;;;2.22;;
27225;SDS011;14732;51.074;3.788;2023-03-31T15:55:29;13.93;;;2.53;;
27225;SDS011;14732;51.074;3.788;2023-03-31T15:58:00;13.93;;;2.45;;
27225;SDS011;14732;51.074;3.788;2023-03-31T16:03:12;16.73;;;2.20;;
27225;SDS011;14732;51.074;3.788;2023-03-31T16:05:39;14.25;;;1.90;;
27225;SDS011;14732;51.074;3.788;2023-03-31T16:08:22;20.42;;;2.75;;
27225;SDS011;14732;51.074;3.788;2023-03-31T16:10:57;23.83;;;3.03;;
27225;SDS011;14732;51.074;3.788;2023-03-31T16:13:33;17.85;;;2.83;;
27225;SDS011;14732;51.074;3.788;2023-03-31T16:16:08;20.10;;;2.30;;
27225;SDS011;14732;51.074;3.788;2023-03-31T16:18:47;16.20;;;3.08;;
27225;SDS011;14732;51.074;3.788;2023-03-31T16:21:24;18.77;;;3.08;;
27225;SDS011;14732;51.074;3.788;2023-03-31T16:23:53;19.95;;;2.80;;
27225;SDS011;14732;51.074;3.788;2023-03-31T16:26:22;15.50;;;2.30;;
27225;SDS011;14732;51.074;3.788;2023-03-31T16:28:50;21.83;;;2.90;;
27225;SDS011;14732;51.074;3.788;2023-03-31T16:31:37;15.63;;;2.50;;
27225;SDS011;14732;51.074;3.788;2023-03-31T16:34:08;16.75;;;2.42;;
27225;SDS011;14732;51.074;3.788;2023-03-31T16:36:34;17.67;;;2.47;;
27225;SDS011;14732;51.074;3.788;2023-03-31T16:39:01;17.88;;;2.63;;
27225;SDS011;14732;51.074;3.788;2023-03-31T16:41:29;16.90;;;2.55;;
27225;SDS011;14732;51.074;3.788;2023-03-31T16:43:57;15.00;;;2.58;;
27225;SDS011;14732;51.074;3.788;2023-03-31T16:46:23;13.63;;;2.47;;
27225;SDS011;14732;51.074;3.788;2023-03-31T16:48:49;14.93;;;3.42;;
27225;SDS011;14732;51.074;3.788;2023-03-31T16:51:15;16.67;;;2.97;;
27225;SDS011;14732;51.074;3.788;2023-03-31T16:53:42;15.65;;;2.75;;
27225;SDS011;14732;51.074;3.788;2023-03-31T16:56:08;13.98;;;2.20;;
27225;SDS011;14732;51.074;3.788;2023-03-31T16:58:36;17.50;;;2.55;;
27225;SDS011;14732;51.074;3.788;2023-03-31T17:01:03;20.50;;;2.83;;
27225;SDS011;14732;51.074;3.788;2023-03-31T17:03:31;13.82;;;2.50;;
27225;SDS011;14732;51.074;3.788;2023-03-31T17:05:57;19.90;;;5.22;;
27225;SDS011;14732;51.074;3.788;2023-03-31T17:08:28;14.88;;;3.33;;
27225;SDS011;14732;51.074;3.788;2023-03-31T17:13:27;16.23;;;3.13;;
27225;SDS011;14732;51.074;3.788;2023-03-31T17:15:54;21.05;;;3.53;;
27225;SDS011;14732;51.074;3.788;2023-03-31T17:18:19;13.10;;;3.58;;
27225;SDS011;14732;51.074;3.788;2023-03-31T17:20:45;19.02;;;3.90;;
27225;SDS011;14732;51.074;3.788;2023-03-31T17:23:11;23.02;;;4.25;;
27225;SDS011;14732;51.074;3.788;2023-03-31T17:25:37;17.08;;;2.70;;
27225;SDS011;14732;51.074;3.788;2023-03-31T17:28:03;16.35;;;3.40;;
27225;SDS011;14732;51.074;3.788;2023-03-31T17:30:30;17.85;;;3.00;;
27225;SDS011;14732;51.074;3.788;2023-03-31T17:32:59;21.08;;;3.33;;
27225;SDS011;14732;51.074;3.788;2023-03-31T17:35:24;23.65;;;5.90;;
27225;SDS011;14732;51.074;3.788;2023-03-31T17:37:50;19.85;;;4.10;;
27225;SDS011;14732;51.074;3.788;2023-03-31T17:40:26;24.40;;;6.95;;
27225;SDS011;14732;51.074;3.788;2023-03-31T17:42:52;20.88;;;3.65;;
27225;SDS011;14732;51.074;3.788;2023-03-31T17:45:18;23.75;;;4.90;;
27225;SDS011;14732;51.074;3.788;2023-03-31T17:47:43;24.73;;;4.20;;
27225;SDS011;14732;51.074;3.788;2023-03-31T17:50:10;24.90;;;3.70;;
27225;SDS011;14732;51.074;3.788;2023-03-31T17:52:36;24.67;;;4.60;;
27225;SDS011;14732;51.074;3.788;2023-03-31T17:55:03;27.08;;;8.32;;
27225;SDS011;14732;51.074;3.788;2023-03-31T17:57:30;17.48;;;3.10;;
27225;SDS011;14732;51.074;3.788;2023-03-31T17:59:56;23.60;;;3.47;;
27225;SDS011;14732;51.074;3.788;2023-03-31T18:02:22;26.60;;;4.68;;
27225;SDS011;14732;51.074;3.788;2023-03-31T18:04:48;28.52;;;3.90;;
27225;SDS011;14732;51.074;3.788;2023-03-31T18:07:14;22.23;;;3.90;;
27225;SDS011;14732;51.074;3.788;2023-03-31T18:09:42;25.58;;;4.22;;